Time;durP1;ratioP1;P1;durP2;ratioP2;P2;SDS_P1;SDS_P2;PMS_P1;PMS_P2;Temp;Humidity;BMP_temperature;BMP_pressure;BME280_temperature;BME280_humidity;BME280_pressure;Samples;Min_cycle;Max_cycle;Signal;HPM_P1;HPM_P2
2022/08/13 00:00:32;;;;;;;5.18;2.78;;;;;;;21.45;43.32;101520.38;4969676;28;20088;-73
2022/08/13 00:03:01;;;;;;;4.32;2.70;;;;;;;21.41;44.91;101515.34;4980326;28;20031;-73
2022/08/13 00:05:27;;;;;;;4.53;2.70;;;;;;;21.37;42.96;101518.19;4999761;28;20025;-72
2022/08/13 00:07:53;;;;;;;4.50;2.70;;;;;;;21.32;44.58;101516.78;4976274;28;20031;-72
2022/08/13 00:12:57;;;;;;;3.33;2.70;;;;;;;21.22;46.25;101517.34;4974065;28;20033;-72
2022/08/13 00:15:25;;;;;;;4.45;2.65;;;;;;;21.17;44.71;101522.03;4965459;28;20771;-72
2022/08/13 00:17:50;;;;;;;4.07;2.70;;;;;;;21.15;43.02;101518.63;4971341;28;20106;-73
2022/08/13 00:20:21;;;;;;;5.50;2.80;;;;;;;21.08;43.83;101518.16;5008282;28;20027;-72
2022/08/13 00:22:47;;;;;;;;;;;;;;;21.18;42.54;101517.63;4977549;28;20097;-72
2022/08/13 00:25:13;;;;;;;2.75;2.40;;;;;;;21.04;42.16;101521.09;4992736;28;19914;-72
2022/08/13 00:27:39;;;;;;;6.03;2.90;;;;;;;21.02;42.99;101513.22;4991546;28;20759;-72
2022/08/13 00:30:07;;;;;;;4.50;2.85;;;;;;;21.00;42.59;101517.78;4980389;28;20045;-72
2022/08/13 00:32:33;;;;;;;6.78;2.70;;;;;;;21.00;42.82;101520.41;4972242;28;20022;-72
2022/08/13 00:35:00;;;;;;;5.60;2.70;;;;;;;20.98;42.22;101516.16;5001051;28;20086;-72
2022/08/13 00:37:27;;;;;;;5.50;2.70;;;;;;;20.94;42.69;101512.84;4964142;28;20468;-72
2022/08/13 00:39:53;;;;;;;6.72;2.70;;;;;;;20.92;42.52;101515.56;4983200;28;20471;-72
2022/08/13 00:42:26;;;;;;;3.63;2.88;;;;;;;20.90;42.70;101511.31;4958463;28;20464;-72
2022/08/13 00:44:51;;;;;;;5.10;2.70;;;;;;;20.84;44.59;101515.16;4995521;28;20508;-72
2022/08/13 00:50:06;;;;;;;4.13;2.60;;;;;;;20.75;46.41;101521.84;4993249;28;20054;-73
2022/08/13 00:52:38;;;;;;;3.15;2.55;;;;;;;20.72;44.95;101521.97;4966812;28;20110;-73
2022/08/13 00:55:07;;;;;;;3.88;2.80;;;;;;;20.68;45.27;101525.75;4966842;28;20050;-73
2022/08/13 00:57:33;;;;;;;5.90;2.50;;;;;;;20.61;45.93;101517.31;4985476;28;20028;-73
2022/08/13 00:59:58;;;;;;;5.07;2.70;;;;;;;20.56;46.65;101518.53;4984153;28;20031;-73
2022/08/13 01:02:24;;;;;;;5.47;2.75;;;;;;;20.51;47.04;101524.09;4997771;28;20114;-73
2022/08/13 01:04:50;;;;;;;4.28;2.78;;;;;;;20.46;47.80;101521.72;5014347;28;20059;-73
2022/08/13 01:07:18;;;;;;;4.50;3.00;;;;;;;20.41;46.95;101522.91;5008885;28;20025;-73
2022/08/13 01:09:44;;;;;;;4.38;3.00;;;;;;;20.38;48.11;101520.44;5001946;28;20028;-73
2022/08/13 01:12:11;;;;;;;7.43;3.10;;;;;;;20.34;48.12;101527.66;4976105;28;20025;-73
2022/08/13 01:14:38;;;;;;;6.63;3.00;;;;;;;20.29;46.91;101524.44;4983971;28;20132;-73
2022/08/13 01:17:05;;;;;;;5.90;3.10;;;;;;;20.25;46.68;101523.75;4983110;28;20027;-73
2022/08/13 01:19:34;;;;;;;7.35;3.50;;;;;;;20.22;47.84;101529.22;4999026;28;20033;-73
2022/08/13 01:22:00;;;;;;;7.97;3.22;;;;;;;20.19;48.54;101528.53;4981465;28;20019;-73
2022/08/13 01:24:28;;;;;;;4.82;2.97;;;;;;;20.11;49.04;101527.19;4965881;28;20500;-73
2022/08/13 01:26:57;;;;;;;5.57;3.17;;;;;;;20.05;47.73;101531.94;4986748;28;20024;-73
2022/08/13 01:29:23;;;;;;;5.88;3.10;;;;;;;19.99;49.23;101533.09;4984727;28;20027;-73
2022/08/13 01:31:51;;;;;;;5.57;3.30;;;;;;;19.92;50.03;101527.31;4966000;28;20038;-73
2022/08/13 01:34:17;;;;;;;5.22;3.25;;;;;;;19.84;48.96;101527.69;4976901;28;20168;-72
2022/08/13 01:36:46;;;;;;;4.72;3.33;;;;;;;19.80;50.46;101528.81;4986870;28;21423;-73
2022/08/13 01:39:12;;;;;;;4.45;3.50;;;;;;;19.79;49.79;101528.88;4980964;28;20033;-70
2022/08/13 01:41:38;;;;;;;5.72;3.70;;;;;;;19.74;49.47;101531.78;4973578;28;20035;-70
2022/08/13 01:44:05;;;;;;;5.18;3.35;;;;;;;19.70;49.47;101530.22;4999333;28;20375;-70
2022/08/13 01:52:07;;;;;;;6.03;3.78;;;;;;;19.56;49.17;101531.81;4980240;28;20179;-70
2022/08/13 01:54:34;;;;;;;4.85;3.22;;;;;;;19.54;48.49;101528.41;4980547;28;20054;-70
2022/08/13 01:57:02;;;;;;;7.57;3.90;;;;;;;19.52;48.09;101530.28;4968879;28;20035;-70
2022/08/13 01:59:29;;;;;;;7.00;3.55;;;;;;;19.51;48.56;101531.22;4958126;28;20394;-70
2022/08/13 02:01:55;;;;;;;4.72;3.85;;;;;;;19.47;48.11;101529.66;4960635;28;20029;-70
2022/08/13 02:04:21;;;;;;;5.03;3.80;;;;;;;19.44;47.97;101529.84;4981790;28;20038;-70
2022/08/13 02:06:47;;;;;;;6.43;3.47;;;;;;;19.41;47.81;101530.00;4968934;28;20595;-70
2022/08/13 02:09:12;;;;;;;4.95;3.63;;;;;;;19.37;48.13;101525.81;4979204;28;20033;-70
2022/08/13 02:11:38;;;;;;;7.88;3.58;;;;;;;19.34;48.05;101531.22;4975160;28;20513;-70
2022/08/13 02:14:05;;;;;;;7.07;3.78;;;;;;;19.30;48.26;101527.06;4985695;28;20054;-72
2022/08/13 02:16:32;;;;;;;6.40;3.70;;;;;;;19.26;48.99;101521.94;4952956;28;20041;-70
2022/08/13 02:18:57;;;;;;;4.90;3.50;;;;;;;19.21;48.76;101523.97;4979057;28;20035;-70
2022/08/13 02:21:25;;;;;;;6.25;4.00;;;;;;;19.17;49.00;101519.75;4965660;28;20034;-70
2022/08/13 02:23:56;;;;;;;7.57;3.53;;;;;;;19.15;48.50;101526.06;4985324;28;20026;-70
2022/08/13 02:26:27;;;;;;;4.70;3.60;;;;;;;19.06;51.43;101519.47;4985819;28;20107;-70
2022/08/13 02:28:54;;;;;;;10.30;3.70;;;;;;;18.99;50.91;101523.34;5007330;28;20017;-70
2022/08/13 02:31:21;;;;;;;8.00;3.63;;;;;;;18.90;52.46;101524.63;4967883;28;20043;-71
2022/08/13 02:33:47;;;;;;;6.90;3.63;;;;;;;18.84;53.56;101532.84;4961572;28;20030;-71
2022/08/13 02:36:12;;;;;;;6.63;3.50;;;;;;;18.76;50.60;101530.59;4964409;28;20028;-71
2022/08/13 02:38:37;;;;;;;5.10;3.95;;;;;;;18.75;49.78;101528.88;4968344;28;20451;-71
2022/08/13 02:43:47;;;;;;;6.10;3.88;;;;;;;18.68;49.54;101527.47;4964196;28;20104;-71
2022/08/13 02:46:15;;;;;;;6.13;3.65;;;;;;;18.62;50.93;101526.84;4977593;28;20034;-71
2022/08/13 02:48:41;;;;;;;5.97;3.80;;;;;;;18.59;53.59;101527.00;4984057;28;20027;-71
2022/08/13 02:51:06;;;;;;;5.88;3.35;;;;;;;18.58;55.46;101527.94;5009474;28;22513;-71
2022/08/13 02:53:32;;;;;;;4.40;3.22;;;;;;;18.50;55.82;101527.44;4977672;28;20049;-71
2022/08/13 02:55:59;;;;;;;5.07;3.10;;;;;;;18.43;56.31;101518.16;4965192;28;20029;-72
2022/08/13 02:58:26;;;;;;;6.65;3.60;;;;;;;18.38;53.44;101525.41;4979397;28;20065;-71
2022/08/13 03:00:52;;;;;;;5.00;3.75;;;;;;;18.35;51.17;101524.63;4976572;28;20035;-71
2022/08/13 03:03:19;;;;;;;5.82;3.85;;;;;;;18.29;53.36;101517.00;4983480;28;20019;-71
2022/08/13 03:05:45;;;;;;;6.65;4.00;;;;;;;18.28;54.45;101519.72;4970848;28;20035;-71
2022/08/13 03:08:11;;;;;;;7.97;3.92;;;;;;;18.26;54.98;101522.44;5000356;28;21351;-71
2022/08/13 03:10:38;;;;;;;6.28;3.78;;;;;;;18.23;53.36;101530.47;4993525;28;20101;-72
2022/08/13 03:13:26;;;;;;;5.80;4.00;;;;;;;18.19;52.33;101526.28;4971166;28;20042;-71
2022/08/13 03:15:55;;;;;;;11.88;4.05;;;;;;;18.10;55.56;101524.94;4961418;28;20115;-71
2022/08/13 03:18:22;;;;;;;13.50;4.57;;;;;;;18.06;54.97;101528.63;4984171;28;20060;-71
2022/08/13 03:20:49;;;;;;;5.40;4.13;;;;;;;18.03;54.74;101521.72;4999223;28;20029;-71
2022/08/13 03:23:14;;;;;;;6.40;3.70;;;;;;;17.99;54.36;101522.78;4982472;28;20075;-71
2022/08/13 03:25:39;;;;;;;5.72;3.78;;;;;;;17.95;53.76;101523.81;4975210;28;20059;-72
2022/08/13 03:28:05;;;;;;;5.63;3.80;;;;;;;17.90;54.28;101525.81;4997441;28;20030;-71
2022/08/13 03:30:34;;;;;;;7.15;4.07;;;;;;;17.86;52.81;101519.81;4989398;28;20043;-70
2022/08/13 03:33:04;;;;;;;6.30;4.22;;;;;;;17.87;52.16;101529.44;5010414;28;20023;-71
2022/08/13 03:35:30;;;;;;;5.97;4.30;;;;;;;17.83;54.88;101524.38;4971522;28;20027;-70
2022/08/13 03:37:55;;;;;;;7.38;4.15;;;;;;;17.80;54.66;101524.50;4971637;28;20080;-71
2022/08/13 03:40:24;;;;;;;6.18;3.97;;;;;;;17.78;55.38;101527.22;4969431;28;20039;-71
2022/08/13 03:42:50;;;;;;;6.60;3.95;;;;;;;17.78;55.18;101534.25;4976531;28;20110;-71
2022/08/13 03:45:17;;;;;;;5.88;4.28;;;;;;;17.73;55.80;101526.56;4985984;28;20029;-71
2022/08/13 03:47:43;;;;;;;13.30;4.40;;;;;;;17.71;55.33;101531.91;4990820;28;20023;-71
2022/08/13 03:50:11;;;;;;;5.13;4.05;;;;;;;17.66;55.03;101526.00;5010491;28;20035;-71
2022/08/13 03:52:37;;;;;;;6.35;3.88;;;;;;;17.66;56.10;101528.63;4994889;28;20096;-71
2022/08/13 03:55:13;;;;;;;5.95;3.97;;;;;;;17.63;54.00;101523.50;4975863;28;20031;-71
2022/08/13 03:57:44;;;;;;;5.00;4.15;;;;;;;17.59;56.09;101527.22;4971529;28;20394;-71
2022/08/13 04:00:11;;;;;;;7.05;4.28;;;;;;;17.56;55.15;101522.91;4988989;28;20058;-71
2022/08/13 04:02:41;;;;;;;6.78;4.30;;;;;;;17.55;55.30;101525.63;4982455;28;20053;-71
2022/08/13 04:05:13;;;;;;;5.45;3.80;;;;;;;17.53;54.97;101516.94;4984391;28;20043;-71
2022/08/13 04:07:39;;;;;;;7.38;3.95;;;;;;;17.50;56.02;101519.72;4981261;28;20050;-71
2022/08/13 04:10:06;;;;;;;5.28;3.88;;;;;;;17.48;54.84;101513.66;4973019;28;20025;-71
2022/08/13 04:12:31;;;;;;;6.70;3.80;;;;;;;17.48;54.73;101513.66;4969241;28;20496;-71
2022/08/13 04:14:56;;;;;;;4.47;3.90;;;;;;;17.49;56.33;101515.38;4965643;28;20032;-71
2022/08/13 04:17:22;;;;;;;6.20;3.60;;;;;;;17.48;57.14;101516.28;4984026;28;20031;-71
2022/08/13 04:19:47;;;;;;;5.28;3.72;;;;;;;17.42;54.72;101515.63;4989753;28;20911;-71
2022/08/13 04:22:13;;;;;;;6.78;3.85;;;;;;;17.39;56.87;101525.44;4978013;28;20370;-71
2022/08/13 04:24:39;;;;;;;6.35;3.85;;;;;;;17.36;57.00;101523.81;4987687;28;20029;-71
2022/08/13 04:27:05;;;;;;;6.40;4.13;;;;;;;17.34;56.15;101522.13;4985864;28;20143;-71
2022/08/13 04:29:31;;;;;;;7.90;4.30;;;;;;;17.34;58.07;101528.28;4976325;28;20131;-71
2022/08/13 04:31:57;;;;;;;6.82;3.88;;;;;;;17.34;55.57;101527.41;4977430;28;20081;-71
2022/08/13 04:34:27;;;;;;;6.15;4.18;;;;;;;17.29;55.44;101530.25;4974314;28;20027;-71
2022/08/13 04:36:52;;;;;;;5.03;3.80;;;;;;;17.28;56.27;101528.53;4986321;28;20031;-71
2022/08/13 04:39:19;;;;;;;8.20;4.18;;;;;;;17.25;55.33;101532.16;4989876;28;20435;-71
2022/08/13 04:41:45;;;;;;;6.13;4.15;;;;;;;17.22;56.86;101529.66;4993937;28;20998;-71
2022/08/13 04:44:11;;;;;;;6.35;4.13;;;;;;;17.26;55.30;101538.25;4987901;28;20036;-71
2022/08/13 04:46:36;;;;;;;6.50;4.00;;;;;;;17.28;55.15;101533.78;4995761;28;20099;-71
2022/08/13 04:49:02;;;;;;;8.00;3.55;;;;;;;17.28;57.87;101533.78;4960833;28;20038;-71
2022/08/13 04:51:30;;;;;;;6.57;4.07;;;;;;;17.28;54.67;101534.66;4974447;28;20027;-72
2022/08/13 04:53:55;;;;;;;5.32;4.28;;;;;;;17.29;56.04;101535.50;4978113;28;20502;-71
2022/08/13 04:56:20;;;;;;;6.38;4.20;;;;;;;17.34;54.03;101541.41;4958844;28;20073;-71
2022/08/13 04:58:45;;;;;;;6.57;4.30;;;;;;;17.36;55.87;101536.97;4985954;28;20110;-71
2022/08/13 05:01:11;;;;;;;6.38;4.20;;;;;;;17.38;56.60;101531.63;4970107;28;20017;-71
2022/08/13 05:03:41;;;;;;;6.53;4.00;;;;;;;17.41;56.39;101540.25;4997700;28;20029;-71
2022/08/13 05:06:11;;;;;;;4.90;3.88;;;;;;;17.43;55.61;101532.28;4983842;28;20395;-71
2022/08/13 05:08:39;;;;;;;5.13;4.10;;;;;;;17.45;56.12;101541.81;4974570;28;20042;-71
2022/08/13 05:11:06;;;;;;;7.88;3.97;;;;;;;17.48;56.13;101532.94;4970853;28;20035;-71
2022/08/13 05:13:34;;;;;;;4.80;3.90;;;;;;;17.52;56.05;101549.44;4960309;28;20027;-71
2022/08/13 05:16:01;;;;;;;5.80;3.60;;;;;;;17.57;53.35;101550.09;4967338;28;20035;-71
2022/08/13 05:18:30;;;;;;;4.97;3.75;;;;;;;17.61;53.81;101546.38;4964128;28;20040;-71
2022/08/13 05:21:00;;;;;;;5.80;3.80;;;;;;;17.65;53.41;101547.97;4980876;28;20038;-71
2022/08/13 05:23:26;;;;;;;6.07;3.40;;;;;;;17.71;52.59;101549.47;5005718;28;20130;-71
2022/08/13 05:25:52;;;;;;;6.85;3.53;;;;;;;17.77;55.27;101545.69;4988802;28;20524;-71
2022/08/13 05:28:17;;;;;;;5.63;3.58;;;;;;;17.83;53.81;101545.44;4966784;28;20035;-70
2022/08/13 05:30:44;;;;;;;6.28;3.45;;;;;;;17.91;52.08;101548.59;4962951;28;20419;-71
2022/08/13 05:33:18;;;;;;;4.47;3.58;;;;;;;18.01;51.71;101544.63;4968201;28;20056;-71
2022/08/13 05:35:47;;;;;;;5.22;3.33;;;;;;;18.13;51.46;101547.63;4962442;28;20029;-71
2022/08/13 05:38:13;;;;;;;8.27;3.45;;;;;;;18.22;51.33;101551.59;4971255;28;20066;-71
2022/08/13 05:40:38;;;;;;;5.82;3.25;;;;;;;18.32;51.49;101540.56;4963743;28;20073;-71
2022/08/13 05:43:19;;;;;;;4.82;3.40;;;;;;;18.43;51.21;101541.84;4990468;28;20376;-71
2022/08/13 05:45:49;;;;;;;3.83;2.80;;;;;;;18.50;52.12;101541.50;4971678;28;20083;-70
2022/08/13 05:48:15;;;;;;;11.95;3.10;;;;;;;18.60;51.16;101541.91;4970899;28;20045;-70
2022/08/13 05:50:42;;;;;;;5.65;3.17;;;;;;;18.65;52.11;101547.78;4990809;28;20025;-70
2022/08/13 05:53:11;;;;;;;4.05;2.92;;;;;;;18.70;53.24;101544.06;4980909;28;20031;-71
2022/08/13 05:55:38;;;;;;;5.80;3.22;;;;;;;18.76;50.87;101543.78;4982022;28;20024;-71
2022/08/13 05:58:05;;;;;;;5.40;3.25;;;;;;;18.82;50.70;101543.47;4995915;28;20488;-71
2022/08/13 06:03:31;;;;;;;4.05;3.05;;;;;;;18.99;51.68;101539.16;4979868;28;20037;-71
2022/08/13 06:06:09;;;;;;;6.57;3.20;;;;;;;19.06;51.60;101543.22;4957691;28;20031;-70
2022/08/13 06:08:37;;;;;;;8.77;3.50;;;;;;;19.12;51.02;101542.91;4988039;28;20036;-71
2022/08/13 06:11:06;;;;;;;4.82;3.15;;;;;;;19.21;50.95;101545.06;4976906;28;20027;-71
2022/08/13 06:13:33;;;;;;;4.15;3.25;;;;;;;19.30;50.82;101546.38;4968820;28;20112;-71
2022/08/13 06:16:00;;;;;;;4.20;3.20;;;;;;;19.38;49.93;101540.69;4972693;28;20027;-71
2022/08/13 06:18:31;;;;;;;9.82;3.25;;;;;;;19.46;51.61;101553.50;4964192;28;20136;-71
2022/08/13 06:20:57;;;;;;;6.13;2.67;;;;;;;19.53;52.13;101546.97;4971110;28;20086;-71
2022/08/13 06:23:25;;;;;;;5.82;2.88;;;;;;;19.61;49.98;101550.06;5005227;28;20027;-71
2022/08/13 06:25:54;;;;;;;4.75;3.00;;;;;;;19.70;48.74;101546.06;4997336;28;20035;-71
2022/08/13 06:28:21;;;;;;;7.68;3.08;;;;;;;19.79;48.34;101542.97;5047407;28;20061;-71
2022/08/13 06:30:51;;;;;;;4.15;3.10;;;;;;;19.90;48.76;101544.19;4981477;28;20484;-71
2022/08/13 06:33:21;;;;;;;5.22;2.92;;;;;;;19.97;48.75;101540.28;4981500;28;20028;-71
2022/08/13 06:35:49;;;;;;;5.00;3.15;;;;;;;20.04;50.42;101549.56;4965016;28;20027;-71
2022/08/13 06:38:16;;;;;;;5.05;3.08;;;;;;;20.10;49.13;101545.72;4962792;28;20456;-71
2022/08/13 06:40:42;;;;;;;6.50;3.17;;;;;;;20.17;49.14;101547.94;4964042;28;20025;-71
2022/08/13 06:43:08;;;;;;;4.97;3.30;;;;;;;20.27;48.70;101552.75;4972349;28;20060;-71
2022/08/13 06:45:33;;;;;;;4.72;3.03;;;;;;;20.33;48.97;101549.75;4961186;28;20033;-71
2022/08/13 06:47:59;;;;;;;4.15;3.20;;;;;;;20.40;50.50;101551.13;4964554;28;20098;-71
2022/08/13 06:50:25;;;;;;;5.32;3.33;;;;;;;20.45;48.42;101546.44;4975476;28;20066;-71
2022/08/13 06:52:50;;;;;;;4.88;3.28;;;;;;;20.53;48.76;101550.41;4963855;28;20029;-71
2022/08/13 06:55:17;;;;;;;4.57;2.95;;;;;;;20.61;50.46;101550.84;4971665;28;20031;-71
2022/08/13 06:57:46;;;;;;;6.35;3.45;;;;;;;20.69;49.01;101561.81;4964318;28;20482;-71
2022/08/13 07:00:12;;;;;;;4.00;3.10;;;;;;;20.75;48.79;101553.56;4968737;28;20103;-71
2022/08/13 07:02:42;;;;;;;4.68;2.90;;;;;;;20.82;49.85;101547.94;4971930;28;20121;-71
2022/08/13 07:05:08;;;;;;;5.15;3.00;;;;;;;20.88;48.62;101553.72;4967880;28;20030;-71
2022/08/13 07:07:34;;;;;;;5.35;2.78;;;;;;;20.95;49.82;101554.22;4970811;28;20042;-71
2022/08/13 07:10:01;;;;;;;7.15;3.00;;;;;;;21.03;49.63;101549.31;4966945;28;20463;-71
2022/08/13 07:12:26;;;;;;;3.88;2.60;;;;;;;21.10;47.93;101548.97;4970095;28;20143;-71
2022/08/13 07:14:52;;;;;;;4.25;2.75;;;;;;;21.17;48.36;101560.91;4970411;28;20125;-71
2022/08/13 07:17:20;;;;;;;4.40;2.95;;;;;;;21.23;47.03;101553.44;4966597;28;20027;-71
2022/08/13 07:19:45;;;;;;;3.70;2.55;;;;;;;21.31;48.01;101550.34;4970914;28;20043;-71
2022/08/13 07:22:10;;;;;;;5.40;2.95;;;;;;;21.37;47.98;101559.69;4975698;28;20035;-71
2022/08/13 07:24:37;;;;;;;4.53;2.78;;;;;;;21.43;46.14;101558.47;4968966;28;20457;-71
2022/08/13 07:27:07;;;;;;;3.92;2.30;;;;;;;21.51;48.56;101558.88;4968214;28;20117;-71
2022/08/13 07:29:36;;;;;;;4.65;2.20;;;;;;;21.59;47.66;101559.25;4970251;28;20419;-71
2022/08/13 07:32:03;;;;;;;6.10;2.47;;;;;;;21.66;46.18;101559.75;4967891;28;20035;-71
2022/08/13 07:34:32;;;;;;;8.88;2.72;;;;;;;21.72;47.31;101558.50;4972317;28;20037;-71
2022/08/13 07:36:59;;;;;;;6.95;2.90;;;;;;;21.78;47.84;101553.69;4971518;28;20039;-71
2022/08/13 07:39:25;;;;;;;4.05;2.30;;;;;;;21.85;46.80;101553.31;4974090;28;20089;-71
2022/08/13 07:41:51;;;;;;;3.42;2.47;;;;;;;21.92;47.25;101559.94;4964290;28;20817;-71
2022/08/13 07:44:21;;;;;;;4.07;2.50;;;;;;;21.97;47.47;101556.06;4977420;28;20035;-71
2022/08/13 07:46:48;;;;;;;7.60;2.70;;;;;;;22.04;45.90;101556.50;4973140;28;20046;-71
2022/08/13 07:49:15;;;;;;;4.03;2.50;;;;;;;22.12;46.21;101561.31;4972761;28;20111;-71
2022/08/13 07:51:42;;;;;;;3.58;2.53;;;;;;;22.20;46.34;101559.06;4980745;28;20439;-71
2022/08/13 07:54:08;;;;;;;7.38;3.00;;;;;;;22.25;44.87;101556.94;4969154;28;20381;-71
2022/08/13 07:56:34;;;;;;;3.17;2.50;;;;;;;22.34;45.38;101559.97;4965883;28;20083;-71
2022/08/13 07:59:08;;;;;;;3.75;2.38;;;;;;;22.38;46.14;101561.44;4964803;28;20023;-71
2022/08/13 08:01:45;;;;;;;4.63;2.58;;;;;;;22.42;45.31;101552.38;4968943;28;20034;-71
2022/08/13 08:04:13;;;;;;;3.35;2.30;;;;;;;22.49;47.13;101548.41;4982836;28;20054;-71
2022/08/13 08:06:39;;;;;;;5.00;2.50;;;;;;;22.58;44.95;101558.38;4979811;28;20045;-70
2022/08/13 08:09:07;;;;;;;6.85;2.58;;;;;;;22.67;44.58;101564.06;4988157;28;20027;-70
2022/08/13 08:14:27;;;;;;;4.82;2.22;;;;;;;22.82;43.50;101562.16;4984809;28;20450;-70
2022/08/13 08:16:52;;;;;;;5.22;2.22;;;;;;;22.92;42.63;101565.94;4968057;28;20082;-71
2022/08/13 08:19:18;;;;;;;3.30;2.10;;;;;;;22.99;41.80;101561.91;4970463;28;20552;-70
2022/08/13 08:21:43;;;;;;;4.07;2.03;;;;;;;23.08;43.90;101564.91;4973649;28;20030;-70
2022/08/13 08:24:09;;;;;;;4.25;2.15;;;;;;;23.16;42.50;101568.72;4979550;28;20092;-70
2022/08/13 08:26:35;;;;;;;3.25;2.35;;;;;;;23.24;42.56;101570.03;4976340;28;20047;-70
2022/08/13 08:29:09;;;;;;;3.42;1.90;;;;;;;23.30;42.27;101561.66;4981253;28;20032;-71
2022/08/13 08:31:39;;;;;;;3.83;2.08;;;;;;;23.38;42.86;101567.31;4973957;28;20039;-70
2022/08/13 08:34:07;;;;;;;3.40;1.80;;;;;;;23.45;44.07;101567.72;4977663;28;20363;-71
2022/08/13 08:36:37;;;;;;;2.80;2.00;;;;;;;23.49;42.35;101572.72;4984321;28;20104;-71
2022/08/13 08:44:37;;;;;;;2.55;1.83;;;;;;;23.70;40.79;101569.53;4983236;28;20124;-71
2022/08/13 08:47:03;;;;;;;3.08;2.08;;;;;;;23.76;41.85;101560.28;4973471;28;20381;-71
2022/08/13 08:49:30;;;;;;;2.22;1.77;;;;;;;23.83;40.94;101563.34;4976584;28;20039;-70
2022/08/13 08:51:57;;;;;;;4.53;2.00;;;;;;;23.92;40.99;101566.19;4965007;28;20386;-71
2022/08/13 08:54:22;;;;;;;3.40;1.80;;;;;;;24.01;41.71;101567.38;4964455;28;20039;-71
2022/08/13 08:56:54;;;;;;;4.03;1.80;;;;;;;24.08;39.76;101565.13;4984928;28;20035;-71
2022/08/13 08:59:20;;;;;;;2.28;1.70;;;;;;;24.16;39.35;101564.56;4967735;28;20035;-71
2022/08/13 09:01:45;;;;;;;3.00;1.67;;;;;;;24.23;41.29;101563.19;4972727;28;20726;-71
2022/08/13 09:04:12;;;;;;;3.38;2.03;;;;;;;24.29;39.66;101561.88;4976109;28;20032;-72
2022/08/13 09:06:38;;;;;;;3.22;1.90;;;;;;;24.31;39.75;101560.81;4962323;28;20086;-71
2022/08/13 09:09:06;;;;;;;4.97;1.88;;;;;;;24.37;40.70;101560.38;4959217;28;20562;-71
2022/08/13 09:11:34;;;;;;;4.47;1.70;;;;;;;24.43;40.28;101559.06;4967556;28;20035;-71
2022/08/13 09:14:08;;;;;;;3.05;1.70;;;;;;;24.47;40.61;101555.22;4967477;28;20065;-71
2022/08/13 09:16:38;;;;;;;2.90;1.85;;;;;;;24.52;40.36;101549.56;4974741;28;20038;-71
2022/08/13 09:19:09;;;;;;;2.13;1.60;;;;;;;24.56;40.50;101548.38;4960017;28;20054;-71
2022/08/13 09:21:45;;;;;;;5.70;2.00;;;;;;;24.62;39.61;101547.06;4978810;28;21362;-71
2022/08/13 09:24:15;;;;;;;1.90;1.50;;;;;;;24.70;37.94;101542.91;4979080;28;20029;-72
2022/08/13 09:26:47;;;;;;;2.33;1.60;;;;;;;24.83;39.31;101544.63;4984066;28;20083;-71
2022/08/13 09:29:14;;;;;;;4.15;1.77;;;;;;;24.90;37.91;101545.00;4970573;28;20145;-71
2022/08/13 09:31:44;;;;;;;2.03;1.70;;;;;;;24.95;39.23;101549.00;4981083;28;20575;-71
2022/08/13 09:34:09;;;;;;;2.47;1.73;;;;;;;25.00;39.14;101544.19;4978161;28;20551;-72
2022/08/13 09:36:36;;;;;;;2.65;1.75;;;;;;;25.10;39.34;101543.50;4985358;28;20122;-72
2022/08/13 09:39:02;;;;;;;3.60;1.67;;;;;;;25.18;39.69;101542.91;4980718;28;20031;-70
2022/08/13 09:41:33;;;;;;;2.72;1.55;;;;;;;25.22;37.02;101534.56;4978308;28;20031;-71
2022/08/13 09:43:58;;;;;;;1.95;1.55;;;;;;;25.34;37.26;101537.25;4973485;28;20054;-71
2022/08/13 09:46:23;;;;;;;3.35;1.60;;;;;;;25.41;36.92;101533.97;4981429;28;20030;-71
2022/08/13 09:48:51;;;;;;;1.73;1.60;;;;;;;25.50;35.88;101531.59;4984412;28;20122;-71
2022/08/13 09:51:17;;;;;;;4.47;1.50;;;;;;;25.55;35.39;101535.59;4983574;28;20063;-71
2022/08/13 09:53:46;;;;;;;5.43;1.50;;;;;;;25.59;34.97;101542.38;4980013;28;20028;-71
2022/08/13 09:56:14;;;;;;;1.75;1.23;;;;;;;25.63;37.31;101536.78;4990623;28;20489;-71
2022/08/13 09:58:39;;;;;;;2.20;1.40;;;;;;;25.63;36.04;101537.66;4983680;28;20032;-70
2022/08/13 10:01:05;;;;;;;3.28;1.60;;;;;;;25.64;35.92;101527.81;4955445;28;20019;-70
2022/08/13 10:03:32;;;;;;;2.08;1.30;;;;;;;25.70;35.85;101527.34;4985824;28;20105;-70
2022/08/13 10:05:57;;;;;;;2.08;1.50;;;;;;;25.74;35.81;101520.81;4980942;28;20349;-72
2022/08/13 10:08:24;;;;;;;3.35;1.40;;;;;;;25.76;35.36;101517.03;4973745;28;20044;-71
2022/08/13 10:10:50;;;;;;;1.65;1.50;;;;;;;25.80;35.25;101516.81;4976470;28;20030;-71
2022/08/13 10:13:15;;;;;;;2.28;1.63;;;;;;;25.85;34.73;101515.47;4978168;28;20042;-71
2022/08/13 10:15:41;;;;;;;2.70;1.25;;;;;;;25.92;33.38;101518.47;4979536;28;20038;-71
2022/08/13 10:18:08;;;;;;;1.60;1.20;;;;;;;25.95;34.44;101515.56;4993429;28;20042;-72
2022/08/13 10:20:36;;;;;;;2.75;1.63;;;;;;;26.00;34.45;101512.53;4991904;28;20023;-71
2022/08/13 10:23:05;;;;;;;1.70;1.60;;;;;;;26.06;32.71;101512.03;4984405;28;20111;-71
2022/08/13 10:25:30;;;;;;;2.20;1.38;;;;;;;26.13;32.74;101496.41;4987203;28;20041;-71
2022/08/13 10:27:57;;;;;;;2.28;1.60;;;;;;;26.21;33.77;101507.31;4987979;28;20055;-71
2022/08/13 10:30:25;;;;;;;1.95;1.50;;;;;;;26.26;32.20;101506.94;4975971;28;20128;-70
2022/08/13 10:32:54;;;;;;;2.13;1.50;;;;;;;26.32;32.87;101504.59;4980624;28;20074;-71
2022/08/13 10:35:21;;;;;;;1.80;1.42;;;;;;;26.35;32.25;101506.16;4978923;28;20032;-71
2022/08/13 10:37:54;;;;;;;6.82;1.60;;;;;;;26.39;32.84;101502.28;4974911;28;20031;-71
2022/08/13 10:40:20;;;;;;;2.83;1.33;;;;;;;26.47;33.10;101505.16;4979999;28;20470;-71
2022/08/13 10:42:46;;;;;;;1.58;1.20;;;;;;;26.49;32.06;101503.19;4961793;28;20034;-71
2022/08/13 10:45:13;;;;;;;2.60;1.20;;;;;;;26.54;32.96;101499.28;4970378;28;20042;-71
2022/08/13 10:47:46;;;;;;;3.55;1.30;;;;;;;26.58;30.43;101496.22;4972211;28;20039;-71
2022/08/13 10:50:16;;;;;;;2.03;1.05;;;;;;;26.64;29.04;101500.22;4979232;28;20476;-71
2022/08/13 10:52:42;;;;;;;2.55;1.00;;;;;;;26.72;31.24;101502.25;4963598;28;20070;-72
2022/08/13 10:55:11;;;;;;;2.00;1.00;;;;;;;26.75;30.35;101502.84;4970312;28;20465;-71
2022/08/13 10:57:38;;;;;;;1.90;1.10;;;;;;;26.78;30.43;101497.25;4968832;28;20039;-71
2022/08/13 11:00:05;;;;;;;2.50;1.35;;;;;;;26.82;30.01;101492.50;4971434;28;20494;-72
2022/08/13 11:02:31;;;;;;;2.58;1.30;;;;;;;26.86;30.59;101493.94;4970253;28;20038;-72
2022/08/13 11:04:56;;;;;;;1.75;1.23;;;;;;;26.88;30.18;101496.47;4979051;28;20328;-71
2022/08/13 11:07:21;;;;;;;2.22;1.30;;;;;;;26.90;31.10;101487.34;4973447;28;20050;-71
2022/08/13 11:09:47;;;;;;;2.85;1.20;;;;;;;26.95;30.21;101493.16;4975514;28;20484;-71
2022/08/13 11:12:12;;;;;;;2.08;1.20;;;;;;;27.01;29.50;101497.09;4971204;28;20082;-71
2022/08/13 11:14:41;;;;;;;1.70;1.27;;;;;;;27.07;29.42;101493.09;4975853;28;20045;-71
2022/08/13 11:17:09;;;;;;;3.38;1.33;;;;;;;27.06;29.50;101489.56;4975425;28;20038;-71
2022/08/13 11:19:37;;;;;;;2.58;1.27;;;;;;;27.10;29.94;101491.00;4978774;28;20030;-71
2022/08/13 11:22:03;;;;;;;3.30;1.20;;;;;;;27.16;29.71;101489.63;4973123;28;20055;-71
2022/08/13 11:24:28;;;;;;;1.88;1.30;;;;;;;27.23;30.80;101487.25;4972355;28;20397;-72
2022/08/13 11:26:53;;;;;;;2.00;1.67;;;;;;;27.26;30.44;101484.31;4978558;28;20040;-72
2022/08/13 11:29:18;;;;;;;4.18;1.42;;;;;;;27.26;28.97;101476.31;4988283;28;20027;-72
2022/08/13 11:31:44;;;;;;;4.93;1.30;;;;;;;27.26;29.68;101473.63;4972276;28;20970;-71
2022/08/13 11:34:09;;;;;;;2.63;1.35;;;;;;;27.26;29.14;101468.28;4974332;28;20054;-71
2022/08/13 11:36:35;;;;;;;1.20;1.10;;;;;;;27.26;30.12;101478.97;4972827;28;20035;-71
2022/08/13 11:39:01;;;;;;;2.15;1.55;;;;;;;27.28;28.64;101466.34;4962570;28;20068;-71
2022/08/13 11:41:27;;;;;;;2.65;1.30;;;;;;;27.33;29.10;101469.44;4971558;28;20437;-71
2022/08/13 11:43:52;;;;;;;1.30;1.20;;;;;;;27.37;28.90;101468.19;4975020;28;20035;-72
2022/08/13 11:46:19;;;;;;;2.28;1.08;;;;;;;27.43;29.55;101458.78;4973349;28;20029;-72
2022/08/13 11:48:44;;;;;;;1.27;1.15;;;;;;;27.48;28.75;101458.44;4975629;28;20036;-72